createdAt,value
2022-08-14T00:01:10.117Z,5.00
2022-08-14T00:04:44.869Z,4.68
2022-08-14T00:08:14.058Z,5.70
2022-08-14T00:11:39.713Z,5.85
2022-08-14T00:15:08.730Z,4.72
2022-08-14T00:19:06.261Z,6.18
2022-08-14T00:22:57.080Z,6.28
2022-08-14T00:26:23.077Z,5.35
2022-08-14T00:29:47.737Z,8.15
2022-08-14T00:33:15.416Z,5.78
2022-08-14T00:36:49.433Z,4.50
2022-08-14T00:40:19.061Z,6.13
2022-08-14T00:43:47.731Z,6.43
2022-08-14T00:47:13.715Z,5.82
2022-08-14T00:50:38.716Z,5.38
2022-08-14T00:54:02.715Z,5.88
2022-08-14T00:57:28.814Z,5.38
2022-08-14T01:00:57.577Z,6.38
2022-08-14T01:04:51.351Z,5.70
2022-08-14T01:08:07.800Z,4.95
2022-08-14T01:12:02.784Z,5.28
2022-08-14T01:15:31.667Z,4.50
2022-08-14T01:19:30.739Z,7.05
2022-08-14T01:22:59.738Z,4.78
2022-08-14T01:26:34.737Z,7.15
2022-08-14T01:30:04.923Z,5.35
2022-08-14T01:33:29.771Z,4.10
2022-08-14T01:36:53.741Z,4.47
2022-08-14T01:40:19.904Z,6.60
2022-08-14T01:43:39.764Z,5.70
2022-08-14T01:47:05.823Z,5.10
2022-08-14T01:50:30.728Z,4.78
2022-08-14T01:54:02.759Z,4.88
2022-08-14T01:57:49.493Z,5.68
2022-08-14T02:01:12.802Z,3.28
2022-08-14T02:04:54.519Z,4.55
2022-08-14T02:08:22.180Z,4.90
2022-08-14T02:11:49.764Z,6.18
2022-08-14T02:15:29.750Z,13.02
2022-08-14T02:18:53.886Z,4.10
2022-08-14T02:22:17.762Z,7.32
2022-08-14T02:25:55.760Z,4.40
2022-08-14T02:29:25.768Z,4.47
2022-08-14T02:33:10.681Z,4.22
2022-08-14T02:36:36.019Z,4.65
2022-08-14T02:40:20.803Z,4.50
2022-08-14T02:44:00.861Z,6.80
2022-08-14T02:47:27.771Z,4.70
2022-08-14T02:50:53.534Z,4.78
2022-08-14T02:54:19.820Z,4.13
2022-08-14T02:57:44.789Z,5.05
2022-08-14T03:01:16.809Z,5.13
2022-08-14T03:04:42.797Z,4.88
2022-08-14T03:08:07.963Z,4.15
2022-08-14T03:11:35.174Z,6.47
2022-08-14T03:15:00.772Z,5.35
2022-08-14T03:18:31.218Z,4.60
2022-08-14T03:21:57.762Z,6.35
2022-08-14T03:25:22.806Z,4.75
2022-08-14T03:28:49.875Z,5.18
2022-08-14T03:32:15.792Z,4.10
2022-08-14T03:36:05.205Z,3.97
2022-08-14T03:39:24.842Z,4.63
2022-08-14T03:42:52.765Z,3.70
2022-08-14T03:46:46.636Z,4.93
2022-08-14T03:50:05.780Z,5.28
2022-08-14T03:53:31.272Z,4.63
2022-08-14T03:56:59.915Z,4.78
2022-08-14T04:00:44.375Z,4.47
2022-08-14T04:04:14.787Z,4.70
2022-08-14T04:08:00.064Z,3.53
2022-08-14T04:11:26.771Z,5.03
2022-08-14T04:14:51.830Z,10.65
2022-08-14T04:18:21.777Z,5.35
2022-08-14T04:22:03.266Z,3.70
2022-08-14T04:25:28.786Z,3.75
2022-08-14T04:29:05.244Z,4.15
2022-08-14T04:33:02.840Z,4.28
2022-08-14T04:36:24.043Z,4.80
2022-08-14T04:40:08.970Z,6.82
2022-08-14T04:43:44.829Z,6.32
2022-08-14T04:47:31.775Z,6.30
2022-08-14T04:51:04.824Z,8.13
2022-08-14T04:54:28.802Z,5.25
2022-08-14T04:57:55.823Z,11.23
2022-08-14T05:01:22.860Z,7.43
2022-08-14T05:04:58.693Z,8.77
2022-08-14T05:08:31.976Z,6.78
2022-08-14T05:13:11.030Z,9.20
2022-08-14T05:15:57.841Z,13.55
2022-08-14T05:19:27.095Z,8.32
2022-08-14T05:22:56.148Z,6.35
2022-08-14T05:26:24.842Z,5.63
2022-08-14T05:29:52.817Z,7.40
2022-08-14T05:33:16.835Z,5.45
2022-08-14T05:36:41.843Z,6.05
2022-08-14T05:40:05.801Z,4.90
2022-08-14T05:43:33.054Z,5.22
2022-08-14T05:47:06.826Z,4.60
2022-08-14T05:50:32.828Z,7.57
2022-08-14T05:54:12.683Z,8.80
2022-08-14T05:57:30.850Z,4.78
2022-08-14T06:00:58.893Z,6.10
2022-08-14T06:04:22.831Z,7.03
2022-08-14T06:07:51.860Z,6.82
2022-08-14T06:11:20.224Z,7.20
2022-08-14T06:14:47.854Z,5.72
2022-08-14T06:18:12.828Z,4.45
2022-08-14T06:21:40.856Z,7.28
2022-08-14T06:25:04.849Z,8.52
2022-08-14T06:28:38.917Z,8.00
2022-08-14T06:32:38.087Z,6.28
2022-08-14T06:35:49.863Z,5.07
2022-08-14T06:39:13.888Z,10.27
2022-08-14T06:42:41.909Z,6.68
2022-08-14T06:46:05.848Z,5.47
2022-08-14T06:49:40.522Z,6.60
2022-08-14T06:53:04.443Z,7.72
2022-08-14T06:56:24.003Z,16.35
2022-08-14T06:59:47.873Z,6.65
2022-08-14T07:03:31.870Z,7.05
2022-08-14T07:06:59.012Z,7.32
2022-08-14T07:10:25.530Z,10.50
2022-08-14T07:13:49.889Z,11.95
2022-08-14T07:17:14.883Z,13.13
2022-08-14T07:20:40.888Z,11.63
2022-08-14T07:24:06.834Z,14.27
2022-08-14T07:27:36.152Z,13.35
2022-08-14T07:31:06.872Z,10.30
2022-08-14T07:34:43.153Z,8.32
2022-08-14T07:38:06.906Z,7.28
2022-08-14T07:41:35.914Z,7.78
2022-08-14T07:44:59.902Z,7.00
2022-08-14T07:48:25.557Z,7.25
2022-08-14T07:51:50.904Z,9.57
2022-08-14T07:55:09.542Z,12.00
2022-08-14T07:58:26.922Z,14.27
2022-08-14T08:01:58.851Z,19.88
2022-08-14T08:05:23.884Z,25.48
2022-08-14T08:09:00.978Z,31.27
2022-08-14T08:12:31.133Z,25.80
2022-08-14T08:15:58.852Z,27.55
2022-08-14T08:19:26.914Z,30.42
2022-08-14T08:23:06.255Z,37.28
2022-08-14T08:26:30.900Z,33.05
2022-08-14T08:29:54.937Z,30.83
2022-08-14T08:33:18.881Z,24.77
2022-08-14T08:36:42.910Z,26.98
2022-08-14T08:40:10.949Z,53.47
2022-08-14T08:43:51.110Z,85.60
2022-08-14T08:47:17.900Z,56.47
2022-08-14T08:50:49.319Z,35.17
2022-08-14T08:54:19.700Z,29.67
2022-08-14T08:57:44.521Z,76.47
2022-08-14T09:01:09.952Z,35.53
2022-08-14T09:04:35.884Z,35.55
2022-08-14T09:08:26.401Z,31.35
2022-08-14T09:11:46.927Z,62.65
2022-08-14T09:15:12.877Z,101.55
2022-08-14T09:18:38.907Z,118.70
2022-08-14T09:22:04.951Z,111.32
2022-08-14T09:26:00.514Z,141.70
2022-08-14T09:29:28.831Z,86.63
2022-08-14T09:33:12.724Z,54.22
2022-08-14T09:36:48.894Z,64.38
2022-08-14T09:40:20.876Z,58.58
2022-08-14T09:44:04.624Z,52.47
2022-08-14T09:47:30.952Z,56.63
2022-08-14T09:54:23.603Z,51.50
2022-08-14T09:57:47.953Z,52.35
2022-08-14T10:01:12.928Z,55.35
2022-08-14T10:04:46.288Z,98.55
2022-08-14T10:08:14.983Z,91.97
2022-08-14T10:11:46.961Z,75.22
2022-08-14T10:15:37.918Z,62.10
2022-08-14T10:19:07.324Z,57.05
2022-08-14T10:23:15.110Z,63.90
2022-08-14T10:26:28.129Z,86.15
2022-08-14T10:29:53.921Z,54.22
2022-08-14T10:33:20.946Z,78.30
2022-08-14T10:36:49.974Z,63.25
2022-08-14T10:40:37.629Z,56.85
2022-08-14T10:44:22.945Z,64.18
2022-08-14T10:48:08.656Z,62.13
2022-08-14T10:51:42.938Z,76.10
2022-08-14T10:55:06.964Z,69.93
2022-08-14T10:58:38.515Z,56.90
2022-08-14T11:01:55.957Z,62.17
2022-08-14T11:05:31.955Z,69.53
2022-08-14T11:08:59.928Z,80.93
2022-08-14T11:12:39.966Z,69.93
2022-08-14T11:16:05.954Z,75.10
2022-08-14T11:19:32.927Z,86.05
2022-08-14T11:22:59.960Z,81.57
2022-08-14T11:26:27.940Z,83.45
2022-08-14T11:30:00.643Z,48.42
2022-08-14T11:33:43.958Z,53.00
2022-08-14T11:37:19.093Z,52.65
2022-08-14T11:40:53.939Z,58.83
2022-08-14T11:44:46.701Z,55.75
2022-08-14T11:48:13.275Z,52.78
2022-08-14T11:51:53.732Z,51.50
2022-08-14T11:55:26.250Z,51.03
2022-08-14T11:58:51.984Z,60.50
2022-08-14T12:03:01.507Z,53.33
2022-08-14T12:06:27.868Z,42.90
2022-08-14T12:09:57.952Z,42.88
2022-08-14T12:13:34.723Z,37.35
2022-08-14T12:16:59.935Z,37.03
2022-08-14T12:20:29.978Z,56.28
2022-08-14T12:23:56.988Z,41.70
2022-08-14T12:27:27.969Z,40.47
2022-08-14T12:30:56.999Z,31.10
2022-08-14T12:34:25.979Z,32.85
2022-08-14T12:37:50.564Z,26.10
2022-08-14T12:41:21.238Z,19.75
2022-08-14T12:44:51.977Z,31.85
2022-08-14T12:48:21.730Z,27.42
2022-08-14T12:51:55.955Z,25.50
2022-08-14T12:56:00.534Z,28.55
2022-08-14T12:59:15.957Z,27.65
2022-08-14T13:02:40.042Z,22.20
2022-08-14T13:06:10.988Z,21.38
2022-08-14T13:09:38.169Z,26.77
2022-08-14T13:13:15.415Z,23.88
2022-08-14T13:16:38.986Z,17.20
2022-08-14T13:20:10.486Z,20.60
2022-08-14T13:23:51.973Z,48.25
2022-08-14T13:27:15.999Z,21.92
2022-08-14T13:30:43.989Z,21.13
2022-08-14T13:34:08.948Z,24.52
2022-08-14T13:37:33.998Z,29.23
2022-08-14T13:41:02.952Z,28.33
2022-08-14T13:44:29.041Z,28.02
2022-08-14T13:47:53.959Z,29.38
2022-08-14T13:51:20.995Z,29.35
2022-08-14T13:54:46.007Z,24.08
2022-08-14T13:58:33.499Z,29.10
2022-08-14T14:01:58.050Z,27.05
2022-08-14T14:05:22.017Z,29.48
2022-08-14T14:08:50.035Z,26.65
2022-08-14T14:12:38.282Z,24.73
2022-08-14T14:16:01.041Z,26.77
2022-08-14T14:19:24.974Z,25.13
2022-08-14T14:23:02.849Z,26.05
2022-08-14T14:26:33.316Z,25.77
2022-08-14T14:30:01.034Z,25.35
2022-08-14T14:33:46.611Z,27.10
2022-08-14T14:37:13.103Z,29.27
2022-08-14T14:40:54.447Z,26.13
2022-08-14T14:44:24.026Z,31.08
2022-08-14T14:47:47.992Z,28.42
2022-08-14T14:51:14.026Z,39.90
2022-08-14T14:54:39.210Z,31.40
2022-08-14T14:58:03.986Z,31.20
2022-08-14T15:01:32.105Z,24.63
2022-08-14T15:04:49.597Z,26.65
2022-08-14T15:08:08.035Z,31.25
2022-08-14T15:11:42.988Z,25.67
2022-08-14T15:15:10.104Z,23.45
2022-08-14T15:18:41.905Z,16.98
2022-08-14T15:22:12.061Z,16.08
2022-08-14T15:25:40.021Z,15.25
2022-08-14T15:29:06.190Z,22.55
2022-08-14T15:32:31.023Z,13.60
2022-08-14T15:35:57.002Z,14.25
2022-08-14T15:39:23.125Z,14.15
2022-08-14T15:42:47.224Z,16.98
2022-08-14T15:46:41.061Z,17.13
2022-08-14T15:49:59.688Z,20.17
2022-08-14T15:53:25.077Z,19.77
2022-08-14T15:56:56.030Z,14.23
2022-08-14T16:00:44.189Z,12.82
2022-08-14T16:04:17.504Z,14.73
2022-08-14T16:07:43.070Z,11.85
2022-08-14T16:11:07.151Z,12.70
2022-08-14T16:14:31.076Z,13.20
2022-08-14T16:17:55.073Z,9.70
2022-08-14T16:21:38.037Z,10.13
2022-08-14T16:25:07.095Z,11.48
2022-08-14T16:28:33.054Z,12.15
2022-08-14T16:31:59.095Z,13.13
2022-08-14T16:35:43.053Z,13.18
2022-08-14T16:39:14.137Z,13.55
2022-08-14T16:43:04.639Z,14.30
2022-08-14T16:46:33.087Z,13.65
2022-08-14T16:50:04.166Z,13.48
2022-08-14T16:53:35.854Z,13.40
2022-08-14T16:57:02.027Z,13.77
2022-08-14T17:00:47.100Z,17.13
2022-08-14T17:04:26.294Z,14.73
2022-08-14T17:07:52.597Z,13.40
2022-08-14T17:11:19.072Z,16.70
2022-08-14T17:15:20.073Z,15.63
2022-08-14T17:19:09.910Z,13.20
2022-08-14T17:22:38.106Z,13.18
2022-08-14T17:26:03.062Z,14.90
2022-08-14T17:29:34.102Z,15.90
2022-08-14T17:33:02.043Z,13.23
2022-08-14T17:36:32.109Z,15.27
2022-08-14T17:39:56.112Z,14.23
2022-08-14T17:43:21.141Z,13.93
2022-08-14T17:47:01.958Z,14.63
2022-08-14T17:50:59.313Z,18.30
2022-08-14T17:54:11.077Z,14.85
2022-08-14T17:57:42.133Z,17.13
2022-08-14T18:01:10.147Z,16.40
2022-08-14T18:04:37.086Z,15.23
2022-08-14T18:08:32.795Z,15.05
2022-08-14T18:11:48.111Z,17.23
2022-08-14T18:15:16.022Z,15.75
2022-08-14T18:18:40.111Z,15.23
2022-08-14T18:22:31.211Z,13.93
2022-08-14T18:26:01.110Z,17.75
2022-08-14T18:29:31.765Z,15.52
2022-08-14T18:32:58.088Z,14.95
2022-08-14T18:36:47.784Z,13.93
2022-08-14T18:40:08.957Z,15.85
2022-08-14T18:43:59.882Z,15.25
2022-08-14T18:47:27.068Z,15.38
2022-08-14T18:51:06.118Z,17.27
2022-08-14T18:54:48.640Z,18.23
2022-08-14T18:58:27.476Z,14.85
2022-08-14T19:01:56.459Z,14.20
2022-08-14T19:05:21.105Z,20.05
2022-08-14T19:08:54.160Z,20.40
2022-08-14T19:12:18.131Z,22.30
2022-08-14T19:16:00.098Z,16.27
2022-08-14T19:19:27.129Z,23.50
2022-08-14T19:22:55.115Z,20.50
2022-08-14T19:26:47.498Z,19.88
2022-08-14T19:30:34.101Z,21.27
2022-08-14T19:34:02.163Z,20.52
2022-08-14T19:38:04.109Z,17.25
2022-08-14T19:41:35.147Z,17.23
2022-08-14T19:44:59.105Z,17.80
2022-08-14T19:48:28.093Z,18.98
2022-08-14T19:51:58.095Z,21.38
2022-08-14T19:55:34.893Z,21.10
2022-08-14T19:59:00.116Z,20.33
2022-08-14T20:02:25.083Z,17.92
2022-08-14T20:05:57.551Z,20.55
2022-08-14T20:11:04.788Z,18.25
2022-08-14T20:13:24.117Z,18.67
2022-08-14T20:16:50.124Z,29.17
2022-08-14T20:20:15.161Z,41.30
2022-08-14T20:23:48.080Z,27.60
2022-08-14T20:27:34.852Z,36.05
2022-08-14T20:31:00.087Z,30.08
2022-08-14T20:34:35.510Z,21.33
2022-08-14T20:38:30.365Z,16.17
2022-08-14T20:41:44.136Z,18.73
2022-08-14T20:45:28.103Z,16.95
2022-08-14T20:48:53.967Z,25.35
2022-08-14T20:52:24.109Z,17.17
2022-08-14T20:55:53.584Z,20.17
2022-08-14T20:59:38.120Z,18.70
2022-08-14T21:03:09.151Z,14.40
2022-08-14T21:07:23.539Z,14.18
2022-08-14T21:10:44.670Z,11.88
2022-08-14T21:14:24.935Z,16.85
2022-08-14T21:17:54.165Z,11.52
2022-08-14T21:21:22.123Z,14.27
2022-08-14T21:24:49.149Z,21.92
2022-08-14T21:28:29.782Z,19.17
2022-08-14T21:31:56.676Z,9.35
2022-08-14T21:35:23.116Z,10.52
2022-08-14T21:38:47.167Z,9.75
2022-08-14T21:42:14.159Z,14.48
2022-08-14T21:45:42.133Z,11.30
2022-08-14T21:49:08.145Z,8.70
2022-08-14T21:52:50.980Z,9.02
2022-08-14T21:56:20.146Z,10.77
2022-08-14T21:59:46.121Z,8.55
2022-08-14T22:03:10.195Z,8.00
2022-08-14T22:06:36.105Z,7.53
2022-08-14T22:10:05.045Z,8.00
2022-08-14T22:13:32.520Z,8.55
2022-08-14T22:17:02.078Z,6.57
2022-08-14T22:20:39.142Z,5.90
2022-08-14T22:24:02.176Z,6.20
2022-08-14T22:27:36.130Z,7.13
2022-08-14T22:31:25.181Z,6.63
2022-08-14T22:34:59.123Z,6.00
2022-08-14T22:38:37.723Z,6.45
2022-08-14T22:42:20.865Z,7.05
2022-08-14T22:50:31.050Z,7.28
2022-08-14T22:56:30.177Z,8.73
2022-08-14T22:59:54.193Z,7.15
2022-08-14T23:03:26.219Z,6.60
2022-08-14T23:07:03.212Z,7.57
2022-08-14T23:10:32.452Z,5.70
2022-08-14T23:14:02.355Z,6.28
2022-08-14T23:17:28.165Z,7.07
2022-08-14T23:21:04.183Z,6.13
2022-08-14T23:24:29.190Z,6.90
2022-08-14T23:28:03.661Z,6.80
2022-08-14T23:31:35.661Z,7.25
2022-08-14T23:35:02.184Z,7.95
2022-08-14T23:38:30.519Z,7.45
2022-08-14T23:42:03.771Z,6.47
2022-08-14T23:45:36.934Z,6.85
2022-08-14T23:49:01.188Z,9.07
2022-08-14T23:52:51.094Z,7.13
2022-08-14T23:56:10.167Z,7.38
2022-08-14T23:59:36.199Z,6.20
